Aérodrome :
LOGIN :

S'inscrire | Disclaimer

   EN    FR    IT 

 










Légende :    VFR   VFR Marginal   IFR   IFR Intensif   IFR Très Intensif
Visi : 
Plafond : 
>= 8 km
>= 3000ft
5 à 8 km
1000 à 3000 ft
1500m à 5 km
500 à 1000 ft
800 à 1500m
200 à 500 ft
< 800m
< 200 ft
Symboles :   Orages  Brouillard  Fortes neiges  Fortes précipitations  Vent > 20 kt
SIGMETs :   Divers  Orages  Givrage  Turbulence  Onde Orograph.  Cendres Volcan.







- Altitude de l'aérodrome : 616 ft
- Code IATA : PUF
- Voir les cartes d'approche


LFBP - Pau

DERNIER METAR :
  • 241700Z AUTO 08007KT 030V130 CAVOK 28/14 Q1018 NOSIG

METARs EXPIRÉS :
  • 241630Z AUTO 06009KT 040V100 CAVOK 28/14 Q1018 NOSIG
  • 241600Z AUTO 06009KT CAVOK 29/15 Q1018 NOSIG
  • 241530Z AUTO 07007KT 020V110 CAVOK 28/15 Q1018 NOSIG
  • 241500Z AUTO 10009KT 020V140 CAVOK 28/17 Q1019 NOSIG
  • 241430Z AUTO 07008KT 020V120 CAVOK 28/16 Q1019 NOSIG

TAF TAF LFBP
Valide du 24 à 18h jusqu'au 25 à 18h UTC


241700Z 2418/2518 07010KT CAVOK
BECMG 2420/2422 12005KT
BECMG 2511/2513 07010KT
Pas de NOTAMs connus pour ce terrain.



MET'MAP, la Météo Aéronautique d'un coup d'oeil ! - Copyright ORBIFLY Décembre 2007 - Disclaimer

ORBIFLY MET'MAP TEAM :

Programmation & Développement : Alexandra Zaïnal
Conception & Développement : Baudouin d'Aumeries
Co-Programmation & Développement : Marc-Olivier Méhu
Soutien technique & logistique : Manuel Goepfert

Contact : metmap@orbifly.com




SOURCES & CREDITS :

   NOAA